sensor_id;sensor_type;location;lat;lon;timestamp;P1;durP1;ratioP1;P2;durP2;ratioP2
4831;SDS011;2430;51.322;7.864;2023-02-18T00:01:16;11.27;;;5.70;;
4831;SDS011;2430;51.322;7.864;2023-02-18T00:03:43;8.83;;;6.43;;
4831;SDS011;2430;51.322;7.864;2023-02-18T00:06:11;8.97;;;5.77;;
4831;SDS011;2430;51.322;7.864;2023-02-18T00:08:37;16.80;;;6.20;;
4831;SDS011;2430;51.322;7.864;2023-02-18T00:11:04;8.67;;;5.00;;
4831;SDS011;2430;51.322;7.864;2023-02-18T00:13:32;6.93;;;4.83;;
4831;SDS011;2430;51.322;7.864;2023-02-18T00:15:59;7.17;;;5.50;;
4831;SDS011;2430;51.322;7.864;2023-02-18T00:18:26;6.77;;;4.50;;
4831;SDS011;2430;51.322;7.864;2023-02-18T00:20:52;9.07;;;5.33;;
4831;SDS011;2430;51.322;7.864;2023-02-18T00:23:19;7.10;;;4.13;;
4831;SDS011;2430;51.322;7.864;2023-02-18T00:25:45;5.10;;;3.87;;
4831;SDS011;2430;51.322;7.864;2023-02-18T00:28:12;4.77;;;3.73;;
4831;SDS011;2430;51.322;7.864;2023-02-18T00:30:40;4.77;;;3.90;;
4831;SDS011;2430;51.322;7.864;2023-02-18T00:33:06;8.00;;;5.20;;
4831;SDS011;2430;51.322;7.864;2023-02-18T00:35:33;10.87;;;4.60;;
4831;SDS011;2430;51.322;7.864;2023-02-18T00:37:59;11.27;;;4.20;;
4831;SDS011;2430;51.322;7.864;2023-02-18T00:40:26;6.93;;;4.70;;
4831;SDS011;2430;51.322;7.864;2023-02-18T00:42:52;5.20;;;3.57;;
4831;SDS011;2430;51.322;7.864;2023-02-18T00:45:19;4.27;;;3.87;;
4831;SDS011;2430;51.322;7.864;2023-02-18T00:47:47;5.83;;;3.43;;
4831;SDS011;2430;51.322;7.864;2023-02-18T00:50:13;5.67;;;3.77;;
4831;SDS011;2430;51.322;7.864;2023-02-18T00:52:40;5.30;;;3.53;;
4831;SDS011;2430;51.322;7.864;2023-02-18T00:55:06;5.10;;;3.67;;
4831;SDS011;2430;51.322;7.864;2023-02-18T00:57:33;6.63;;;4.53;;
4831;SDS011;2430;51.322;7.864;2023-02-18T00:59:59;4.77;;;4.00;;
4831;SDS011;2430;51.322;7.864;2023-02-18T01:02:25;7.03;;;3.90;;
4831;SDS011;2430;51.322;7.864;2023-02-18T01:04:53;4.97;;;3.97;;
4831;SDS011;2430;51.322;7.864;2023-02-18T01:07:20;6.20;;;3.97;;
4831;SDS011;2430;51.322;7.864;2023-02-18T01:09:46;7.97;;;5.17;;
4831;SDS011;2430;51.322;7.864;2023-02-18T01:12:13;5.77;;;4.43;;
4831;SDS011;2430;51.322;7.864;2023-02-18T01:14:39;5.60;;;4.80;;
4831;SDS011;2430;51.322;7.864;2023-02-18T01:17:05;6.37;;;4.50;;
4831;SDS011;2430;51.322;7.864;2023-02-18T01:19:32;3.90;;;3.57;;
4831;SDS011;2430;51.322;7.864;2023-02-18T01:22:00;3.53;;;3.23;;
4831;SDS011;2430;51.322;7.864;2023-02-18T01:24:26;4.37;;;3.60;;
4831;SDS011;2430;51.322;7.864;2023-02-18T01:26:53;3.53;;;3.20;;
4831;SDS011;2430;51.322;7.864;2023-02-18T01:29:19;5.90;;;4.33;;
4831;SDS011;2430;51.322;7.864;2023-02-18T01:31:46;4.63;;;3.00;;
4831;SDS011;2430;51.322;7.864;2023-02-18T01:34:12;6.07;;;4.00;;
4831;SDS011;2430;51.322;7.864;2023-02-18T01:36:39;5.10;;;3.50;;
4831;SDS011;2430;51.322;7.864;2023-02-18T01:39:07;3.83;;;3.37;;
4831;SDS011;2430;51.322;7.864;2023-02-18T01:41:33;3.80;;;3.40;;
4831;SDS011;2430;51.322;7.864;2023-02-18T01:44:10;5.10;;;3.43;;
4831;SDS011;2430;51.322;7.864;2023-02-18T01:46:36;4.03;;;3.67;;
4831;SDS011;2430;51.322;7.864;2023-02-18T01:49:02;4.90;;;3.20;;
4831;SDS011;2430;51.322;7.864;2023-02-18T01:51:30;3.90;;;2.97;;
4831;SDS011;2430;51.322;7.864;2023-02-18T01:53:58;5.00;;;3.60;;
4831;SDS011;2430;51.322;7.864;2023-02-18T01:56:28;8.53;;;3.90;;
4831;SDS011;2430;51.322;7.864;2023-02-18T01:58:56;5.17;;;2.80;;
4831;SDS011;2430;51.322;7.864;2023-02-18T02:01:25;3.17;;;2.87;;
4831;SDS011;2430;51.322;7.864;2023-02-18T02:03:53;5.47;;;3.40;;
4831;SDS011;2430;51.322;7.864;2023-02-18T02:06:20;5.10;;;3.43;;
4831;SDS011;2430;51.322;7.864;2023-02-18T02:08:47;3.10;;;2.60;;
4831;SDS011;2430;51.322;7.864;2023-02-18T02:11:20;5.20;;;3.57;;
4831;SDS011;2430;51.322;7.864;2023-02-18T02:13:57;5.43;;;3.13;;
4831;SDS011;2430;51.322;7.864;2023-02-18T02:16:28;3.90;;;2.70;;
4831;SDS011;2430;51.322;7.864;2023-02-18T02:18:57;3.83;;;3.27;;
4831;SDS011;2430;51.322;7.864;2023-02-18T02:24:23;3.77;;;3.13;;
4831;SDS011;2430;51.322;7.864;2023-02-18T02:27:04;3.30;;;2.60;;
4831;SDS011;2430;51.322;7.864;2023-02-18T02:32:22;4.17;;;3.43;;
4831;SDS011;2430;51.322;7.864;2023-02-18T02:34:55;4.37;;;3.30;;
4831;SDS011;2430;51.322;7.864;2023-02-18T02:37:25;7.47;;;4.60;;
4831;SDS011;2430;51.322;7.864;2023-02-18T02:39:56;4.03;;;3.10;;
4831;SDS011;2430;51.322;7.864;2023-02-18T02:42:28;3.73;;;2.97;;
4831;SDS011;2430;51.322;7.864;2023-02-18T02:45:00;4.60;;;3.73;;
4831;SDS011;2430;51.322;7.864;2023-02-18T02:47:32;7.07;;;4.27;;
4831;SDS011;2430;51.322;7.864;2023-02-18T02:50:05;7.63;;;4.43;;
4831;SDS011;2430;51.322;7.864;2023-02-18T02:52:33;9.27;;;4.50;;
4831;SDS011;2430;51.322;7.864;2023-02-18T02:55:03;6.10;;;4.30;;
4831;SDS011;2430;51.322;7.864;2023-02-18T02:57:44;4.33;;;3.93;;
4831;SDS011;2430;51.322;7.864;2023-02-18T03:00:11;11.23;;;3.63;;
4831;SDS011;2430;51.322;7.864;2023-02-18T03:02:40;3.87;;;2.70;;
4831;SDS011;2430;51.322;7.864;2023-02-18T03:05:15;8.17;;;4.20;;
4831;SDS011;2430;51.322;7.864;2023-02-18T03:07:48;4.23;;;3.17;;
4831;SDS011;2430;51.322;7.864;2023-02-18T03:10:18;5.43;;;3.50;;
4831;SDS011;2430;51.322;7.864;2023-02-18T03:12:52;7.00;;;3.97;;
4831;SDS011;2430;51.322;7.864;2023-02-18T03:15:21;5.63;;;3.03;;
4831;SDS011;2430;51.322;7.864;2023-02-18T03:17:51;4.37;;;3.00;;
4831;SDS011;2430;51.322;7.864;2023-02-18T03:20:22;6.03;;;3.37;;
4831;SDS011;2430;51.322;7.864;2023-02-18T03:22:50;5.60;;;2.93;;
4831;SDS011;2430;51.322;7.864;2023-02-18T03:25:18;5.10;;;3.40;;
4831;SDS011;2430;51.322;7.864;2023-02-18T03:27:48;4.13;;;3.07;;
4831;SDS011;2430;51.322;7.864;2023-02-18T03:30:16;3.63;;;2.70;;
4831;SDS011;2430;51.322;7.864;2023-02-18T03:32:46;5.90;;;3.47;;
4831;SDS011;2430;51.322;7.864;2023-02-18T03:35:15;4.40;;;3.00;;
4831;SDS011;2430;51.322;7.864;2023-02-18T03:37:44;2.73;;;2.50;;
4831;SDS011;2430;51.322;7.864;2023-02-18T03:40:12;3.53;;;2.80;;
4831;SDS011;2430;51.322;7.864;2023-02-18T03:42:39;6.60;;;3.53;;
4831;SDS011;2430;51.322;7.864;2023-02-18T03:45:06;4.33;;;3.10;;
4831;SDS011;2430;51.322;7.864;2023-02-18T03:47:33;3.70;;;3.30;;
4831;SDS011;2430;51.322;7.864;2023-02-18T03:50:00;5.13;;;3.03;;
4831;SDS011;2430;51.322;7.864;2023-02-18T03:52:26;7.90;;;3.33;;
4831;SDS011;2430;51.322;7.864;2023-02-18T03:54:54;4.97;;;2.73;;
4831;SDS011;2430;51.322;7.864;2023-02-18T03:57:21;2.87;;;2.57;;
4831;SDS011;2430;51.322;7.864;2023-02-18T03:59:48;3.23;;;2.60;;
4831;SDS011;2430;51.322;7.864;2023-02-18T04:02:14;3.50;;;2.73;;
4831;SDS011;2430;51.322;7.864;2023-02-18T04:04:41;6.53;;;3.37;;
4831;SDS011;2430;51.322;7.864;2023-02-18T04:07:08;5.03;;;2.50;;
4831;SDS011;2430;51.322;7.864;2023-02-18T04:09:35;3.10;;;2.80;;
4831;SDS011;2430;51.322;7.864;2023-02-18T04:12:03;2.80;;;2.40;;
4831;SDS011;2430;51.322;7.864;2023-02-18T04:14:30;3.43;;;2.40;;
4831;SDS011;2430;51.322;7.864;2023-02-18T04:16:57;4.40;;;2.80;;
4831;SDS011;2430;51.322;7.864;2023-02-18T04:19:24;2.87;;;2.67;;
4831;SDS011;2430;51.322;7.864;2023-02-18T04:21:51;12.40;;;2.57;;
4831;SDS011;2430;51.322;7.864;2023-02-18T04:24:21;2.50;;;2.23;;
4831;SDS011;2430;51.322;7.864;2023-02-18T04:26:48;2.73;;;2.17;;
4831;SDS011;2430;51.322;7.864;2023-02-18T04:29:16;3.77;;;2.53;;
4831;SDS011;2430;51.322;7.864;2023-02-18T04:31:43;3.47;;;2.37;;
4831;SDS011;2430;51.322;7.864;2023-02-18T04:34:09;4.50;;;2.60;;
4831;SDS011;2430;51.322;7.864;2023-02-18T04:36:36;3.33;;;3.03;;
4831;SDS011;2430;51.322;7.864;2023-02-18T04:39:03;2.87;;;2.40;;
4831;SDS011;2430;51.322;7.864;2023-02-18T04:41:31;3.27;;;2.80;;
4831;SDS011;2430;51.322;7.864;2023-02-18T04:43:57;1.90;;;1.80;;
4831;SDS011;2430;51.322;7.864;2023-02-18T04:46:26;1.87;;;1.77;;
4831;SDS011;2430;51.322;7.864;2023-02-18T04:48:53;4.00;;;3.17;;
4831;SDS011;2430;51.322;7.864;2023-02-18T04:51:19;8.90;;;2.63;;
4831;SDS011;2430;51.322;7.864;2023-02-18T04:53:46;3.83;;;3.43;;
4831;SDS011;2430;51.322;7.864;2023-02-18T04:56:13;5.90;;;3.10;;
4831;SDS011;2430;51.322;7.864;2023-02-18T04:58:40;3.87;;;2.80;;
4831;SDS011;2430;51.322;7.864;2023-02-18T05:01:07;4.87;;;3.10;;
4831;SDS011;2430;51.322;7.864;2023-02-18T05:03:35;3.13;;;2.83;;
4831;SDS011;2430;51.322;7.864;2023-02-18T05:06:02;4.17;;;3.20;;
4831;SDS011;2430;51.322;7.864;2023-02-18T05:08:29;5.93;;;3.00;;
4831;SDS011;2430;51.322;7.864;2023-02-18T05:10:56;3.20;;;2.20;;
4831;SDS011;2430;51.322;7.864;2023-02-18T05:13:23;3.40;;;3.00;;
4831;SDS011;2430;51.322;7.864;2023-02-18T05:15:49;3.27;;;2.60;;
4831;SDS011;2430;51.322;7.864;2023-02-18T05:18:15;2.20;;;2.10;;
4831;SDS011;2430;51.322;7.864;2023-02-18T05:20:43;3.63;;;2.53;;
4831;SDS011;2430;51.322;7.864;2023-02-18T05:23:11;4.33;;;3.00;;
4831;SDS011;2430;51.322;7.864;2023-02-18T05:25:39;2.70;;;1.90;;
4831;SDS011;2430;51.322;7.864;2023-02-18T05:28:05;2.77;;;1.87;;
4831;SDS011;2430;51.322;7.864;2023-02-18T05:30:32;10.80;;;1.67;;
4831;SDS011;2430;51.322;7.864;2023-02-18T05:32:59;1.70;;;1.30;;
4831;SDS011;2430;51.322;7.864;2023-02-18T05:35:26;1.67;;;1.37;;
4831;SDS011;2430;51.322;7.864;2023-02-18T05:37:54;1.50;;;1.40;;
4831;SDS011;2430;51.322;7.864;2023-02-18T05:40:20;1.10;;;0.90;;
4831;SDS011;2430;51.322;7.864;2023-02-18T05:42:47;1.63;;;1.23;;
4831;SDS011;2430;51.322;7.864;2023-02-18T05:45:14;0.70;;;0.70;;
4831;SDS011;2430;51.322;7.864;2023-02-18T05:47:41;1.23;;;1.07;;
4831;SDS011;2430;51.322;7.864;2023-02-18T05:50:08;1.20;;;1.10;;
4831;SDS011;2430;51.322;7.864;2023-02-18T05:52:34;0.97;;;0.87;;
4831;SDS011;2430;51.322;7.864;2023-02-18T05:55:03;0.80;;;0.80;;
4831;SDS011;2430;51.322;7.864;2023-02-18T05:57:30;0.80;;;0.77;;
4831;SDS011;2430;51.322;7.864;2023-02-18T05:59:58;0.90;;;0.90;;
4831;SDS011;2430;51.322;7.864;2023-02-18T06:02:25;1.03;;;0.77;;
4831;SDS011;2430;51.322;7.864;2023-02-18T06:04:51;0.70;;;0.60;;
4831;SDS011;2430;51.322;7.864;2023-02-18T06:07:18;0.80;;;0.80;;
4831;SDS011;2430;51.322;7.864;2023-02-18T06:09:45;0.60;;;0.60;;
4831;SDS011;2430;51.322;7.864;2023-02-18T06:12:13;0.73;;;0.73;;
4831;SDS011;2430;51.322;7.864;2023-02-18T06:14:40;0.90;;;0.80;;
4831;SDS011;2430;51.322;7.864;2023-02-18T06:17:07;0.93;;;0.83;;
4831;SDS011;2430;51.322;7.864;2023-02-18T06:19:34;0.77;;;0.70;;
4831;SDS011;2430;51.322;7.864;2023-02-18T06:22:01;0.70;;;0.63;;
4831;SDS011;2430;51.322;7.864;2023-02-18T06:24:27;0.90;;;0.70;;
4831;SDS011;2430;51.322;7.864;2023-02-18T06:26:54;0.70;;;0.70;;
4831;SDS011;2430;51.322;7.864;2023-02-18T06:29:22;0.63;;;0.60;;
4831;SDS011;2430;51.322;7.864;2023-02-18T06:31:50;0.70;;;0.63;;
4831;SDS011;2430;51.322;7.864;2023-02-18T06:34:16;0.60;;;0.60;;
4831;SDS011;2430;51.322;7.864;2023-02-18T06:36:43;0.67;;;0.63;;
4831;SDS011;2430;51.322;7.864;2023-02-18T06:39:09;0.73;;;0.67;;
4831;SDS011;2430;51.322;7.864;2023-02-18T06:41:37;0.60;;;0.50;;
4831;SDS011;2430;51.322;7.864;2023-02-18T06:44:04;0.70;;;0.67;;
4831;SDS011;2430;51.322;7.864;2023-02-18T06:46:32;0.60;;;0.60;;
4831;SDS011;2430;51.322;7.864;2023-02-18T06:48:58;1.37;;;1.03;;
4831;SDS011;2430;51.322;7.864;2023-02-18T06:51:25;0.80;;;0.80;;
4831;SDS011;2430;51.322;7.864;2023-02-18T06:53:51;0.60;;;0.60;;
4831;SDS011;2430;51.322;7.864;2023-02-18T06:56:18;0.70;;;0.70;;
4831;SDS011;2430;51.322;7.864;2023-02-18T06:58:44;1.30;;;0.77;;
4831;SDS011;2430;51.322;7.864;2023-02-18T07:01:10;0.70;;;0.60;;
4831;SDS011;2430;51.322;7.864;2023-02-18T07:03:39;0.70;;;0.60;;
4831;SDS011;2430;51.322;7.864;2023-02-18T07:06:05;0.60;;;0.50;;
4831;SDS011;2430;51.322;7.864;2023-02-18T07:08:32;1.93;;;0.80;;
4831;SDS011;2430;51.322;7.864;2023-02-18T07:11:03;0.70;;;0.60;;
4831;SDS011;2430;51.322;7.864;2023-02-18T07:13:29;0.70;;;0.60;;
4831;SDS011;2430;51.322;7.864;2023-02-18T07:15:56;0.80;;;0.80;;
4831;SDS011;2430;51.322;7.864;2023-02-18T07:18:22;0.70;;;0.60;;
4831;SDS011;2430;51.322;7.864;2023-02-18T07:20:50;1.73;;;0.80;;
4831;SDS011;2430;51.322;7.864;2023-02-18T07:23:17;1.07;;;0.90;;
4831;SDS011;2430;51.322;7.864;2023-02-18T07:25:43;0.70;;;0.60;;
4831;SDS011;2430;51.322;7.864;2023-02-18T07:28:09;0.70;;;0.70;;
4831;SDS011;2430;51.322;7.864;2023-02-18T07:30:36;0.80;;;0.80;;
4831;SDS011;2430;51.322;7.864;2023-02-18T07:33:02;3.10;;;1.00;;
4831;SDS011;2430;51.322;7.864;2023-02-18T07:35:29;1.73;;;0.90;;
4831;SDS011;2430;51.322;7.864;2023-02-18T07:37:56;1.00;;;0.90;;
4831;SDS011;2430;51.322;7.864;2023-02-18T07:40:23;0.70;;;0.70;;
4831;SDS011;2430;51.322;7.864;2023-02-18T07:42:49;0.90;;;0.80;;
4831;SDS011;2430;51.322;7.864;2023-02-18T07:45:16;0.87;;;0.87;;
4831;SDS011;2430;51.322;7.864;2023-02-18T07:47:42;1.77;;;1.07;;
4831;SDS011;2430;51.322;7.864;2023-02-18T07:50:09;1.60;;;1.50;;
4831;SDS011;2430;51.322;7.864;2023-02-18T07:52:36;6.43;;;1.30;;
4831;SDS011;2430;51.322;7.864;2023-02-18T07:55:04;0.87;;;0.83;;
4831;SDS011;2430;51.322;7.864;2023-02-18T07:57:30;1.53;;;1.10;;
4831;SDS011;2430;51.322;7.864;2023-02-18T07:59:59;1.27;;;1.00;;
4831;SDS011;2430;51.322;7.864;2023-02-18T08:02:26;1.63;;;1.53;;
4831;SDS011;2430;51.322;7.864;2023-02-18T08:04:52;2.60;;;1.30;;
4831;SDS011;2430;51.322;7.864;2023-02-18T08:07:19;2.00;;;1.07;;
4831;SDS011;2430;51.322;7.864;2023-02-18T08:09:46;2.57;;;1.60;;
4831;SDS011;2430;51.322;7.864;2023-02-18T08:12:16;1.10;;;1.00;;
4831;SDS011;2430;51.322;7.864;2023-02-18T08:14:42;1.60;;;1.50;;
4831;SDS011;2430;51.322;7.864;2023-02-18T08:17:09;2.20;;;1.40;;
4831;SDS011;2430;51.322;7.864;2023-02-18T08:19:35;1.90;;;1.60;;
4831;SDS011;2430;51.322;7.864;2023-02-18T08:22:01;1.27;;;1.17;;
4831;SDS011;2430;51.322;7.864;2023-02-18T08:24:28;1.07;;;0.97;;
4831;SDS011;2430;51.322;7.864;2023-02-18T08:26:54;1.10;;;1.00;;
4831;SDS011;2430;51.322;7.864;2023-02-18T08:29:22;1.00;;;0.90;;
4831;SDS011;2430;51.322;7.864;2023-02-18T08:31:48;1.77;;;1.20;;
4831;SDS011;2430;51.322;7.864;2023-02-18T08:34:16;1.50;;;1.40;;
4831;SDS011;2430;51.322;7.864;2023-02-18T08:36:43;1.00;;;0.90;;
4831;SDS011;2430;51.322;7.864;2023-02-18T08:39:09;1.27;;;1.17;;
4831;SDS011;2430;51.322;7.864;2023-02-18T08:41:36;1.50;;;1.30;;
4831;SDS011;2430;51.322;7.864;2023-02-18T08:44:02;0.83;;;0.83;;
4831;SDS011;2430;51.322;7.864;2023-02-18T08:46:30;1.20;;;1.10;;
4831;SDS011;2430;51.322;7.864;2023-02-18T08:48:56;1.10;;;1.00;;
4831;SDS011;2430;51.322;7.864;2023-02-18T08:51:23;2.27;;;1.07;;
4831;SDS011;2430;51.322;7.864;2023-02-18T08:53:50;1.00;;;0.90;;
4831;SDS011;2430;51.322;7.864;2023-02-18T08:56:16;1.13;;;1.03;;
4831;SDS011;2430;51.322;7.864;2023-02-18T08:58:43;0.90;;;0.90;;
4831;SDS011;2430;51.322;7.864;2023-02-18T09:01:10;0.80;;;0.80;;
4831;SDS011;2430;51.322;7.864;2023-02-18T09:03:38;0.90;;;0.80;;
4831;SDS011;2430;51.322;7.864;2023-02-18T09:06:05;1.00;;;0.90;;
4831;SDS011;2430;51.322;7.864;2023-02-18T09:08:31;5.60;;;1.53;;
4831;SDS011;2430;51.322;7.864;2023-02-18T09:10:58;1.23;;;1.13;;
4831;SDS011;2430;51.322;7.864;2023-02-18T09:13:25;0.90;;;0.80;;
4831;SDS011;2430;51.322;7.864;2023-02-18T09:15:55;0.80;;;0.70;;
4831;SDS011;2430;51.322;7.864;2023-02-18T09:18:22;1.00;;;0.80;;
4831;SDS011;2430;51.322;7.864;2023-02-18T09:20:50;1.67;;;0.80;;
4831;SDS011;2430;51.322;7.864;2023-02-18T09:23:17;1.83;;;1.10;;
4831;SDS011;2430;51.322;7.864;2023-02-18T09:25:45;1.03;;;0.80;;
4831;SDS011;2430;51.322;7.864;2023-02-18T09:28:11;1.37;;;0.87;;
4831;SDS011;2430;51.322;7.864;2023-02-18T09:30:38;0.83;;;0.83;;
4831;SDS011;2430;51.322;7.864;2023-02-18T09:33:04;0.70;;;0.70;;
4831;SDS011;2430;51.322;7.864;2023-02-18T09:35:31;3.57;;;1.00;;
4831;SDS011;2430;51.322;7.864;2023-02-18T09:37:59;0.70;;;0.70;;
4831;SDS011;2430;51.322;7.864;2023-02-18T09:40:26;1.33;;;0.80;;
4831;SDS011;2430;51.322;7.864;2023-02-18T09:42:53;2.20;;;0.80;;
4831;SDS011;2430;51.322;7.864;2023-02-18T09:45:20;1.10;;;0.90;;
4831;SDS011;2430;51.322;7.864;2023-02-18T09:47:46;1.33;;;1.00;;
4831;SDS011;2430;51.322;7.864;2023-02-18T09:50:17;1.27;;;1.13;;
4831;SDS011;2430;51.322;7.864;2023-02-18T09:52:44;5.10;;;1.10;;
4831;SDS011;2430;51.322;7.864;2023-02-18T09:55:17;1.07;;;0.97;;
4831;SDS011;2430;51.322;7.864;2023-02-18T09:57:45;1.67;;;1.40;;
4831;SDS011;2430;51.322;7.864;2023-02-18T10:00:13;1.10;;;0.90;;
4831;SDS011;2430;51.322;7.864;2023-02-18T10:02:41;1.87;;;1.10;;
4831;SDS011;2430;51.322;7.864;2023-02-18T10:05:10;2.27;;;1.40;;
4831;SDS011;2430;51.322;7.864;2023-02-18T10:07:37;1.17;;;1.03;;
4831;SDS011;2430;51.322;7.864;2023-02-18T10:10:10;3.50;;;1.50;;
4831;SDS011;2430;51.322;7.864;2023-02-18T10:12:43;1.30;;;1.20;;
4831;SDS011;2430;51.322;7.864;2023-02-18T10:15:10;2.93;;;1.10;;
4831;SDS011;2430;51.322;7.864;2023-02-18T10:17:42;1.57;;;1.47;;
4831;SDS011;2430;51.322;7.864;2023-02-18T10:20:09;2.80;;;1.27;;
4831;SDS011;2430;51.322;7.864;2023-02-18T10:22:37;2.20;;;1.90;;
4831;SDS011;2430;51.322;7.864;2023-02-18T10:25:04;2.63;;;1.90;;
4831;SDS011;2430;51.322;7.864;2023-02-18T10:27:32;1.20;;;1.10;;
4831;SDS011;2430;51.322;7.864;2023-02-18T10:30:08;5.57;;;2.47;;
4831;SDS011;2430;51.322;7.864;2023-02-18T10:32:41;2.07;;;1.53;;
4831;SDS011;2430;51.322;7.864;2023-02-18T10:35:12;1.70;;;1.60;;
4831;SDS011;2430;51.322;7.864;2023-02-18T10:37:48;2.23;;;2.03;;
4831;SDS011;2430;51.322;7.864;2023-02-18T10:40:17;2.93;;;1.80;;
4831;SDS011;2430;51.322;7.864;2023-02-18T10:42:51;2.40;;;2.17;;
4831;SDS011;2430;51.322;7.864;2023-02-18T10:45:22;1.60;;;1.47;;
4831;SDS011;2430;51.322;7.864;2023-02-18T10:47:55;1.70;;;1.60;;
4831;SDS011;2430;51.322;7.864;2023-02-18T10:50:26;3.13;;;1.83;;
4831;SDS011;2430;51.322;7.864;2023-02-18T10:52:54;6.60;;;2.83;;
4831;SDS011;2430;51.322;7.864;2023-02-18T10:55:32;1.70;;;1.60;;
4831;SDS011;2430;51.322;7.864;2023-02-18T10:57:59;2.70;;;1.77;;
4831;SDS011;2430;51.322;7.864;2023-02-18T11:00:27;1.67;;;1.57;;
4831;SDS011;2430;51.322;7.864;2023-02-18T11:03:11;2.50;;;1.67;;
4831;SDS011;2430;51.322;7.864;2023-02-18T11:05:38;3.73;;;1.83;;
4831;SDS011;2430;51.322;7.864;2023-02-18T11:08:06;1.50;;;1.40;;
4831;SDS011;2430;51.322;7.864;2023-02-18T11:10:34;2.20;;;1.70;;
4831;SDS011;2430;51.322;7.864;2023-02-18T11:13:04;2.40;;;1.47;;
4831;SDS011;2430;51.322;7.864;2023-02-18T11:15:34;1.10;;;1.00;;
4831;SDS011;2430;51.322;7.864;2023-02-18T11:18:10;2.03;;;1.30;;
4831;SDS011;2430;51.322;7.864;2023-02-18T11:20:37;2.43;;;1.80;;
4831;SDS011;2430;51.322;7.864;2023-02-18T11:23:17;6.43;;;2.07;;
4831;SDS011;2430;51.322;7.864;2023-02-18T11:25:54;1.37;;;1.10;;
4831;SDS011;2430;51.322;7.864;2023-02-18T11:28:25;2.27;;;1.10;;
4831;SDS011;2430;51.322;7.864;2023-02-18T11:30:55;1.83;;;1.10;;
4831;SDS011;2430;51.322;7.864;2023-02-18T11:33:23;1.53;;;1.30;;
4831;SDS011;2430;51.322;7.864;2023-02-18T11:35:52;6.20;;;1.40;;
4831;SDS011;2430;51.322;7.864;2023-02-18T11:38:21;1.93;;;1.37;;
4831;SDS011;2430;51.322;7.864;2023-02-18T11:40:52;8.80;;;1.40;;
4831;SDS011;2430;51.322;7.864;2023-02-18T11:43:19;6.03;;;1.40;;
4831;SDS011;2430;51.322;7.864;2023-02-18T11:45:46;1.77;;;1.10;;
4831;SDS011;2430;51.322;7.864;2023-02-18T11:48:16;1.10;;;1.00;;
4831;SDS011;2430;51.322;7.864;2023-02-18T11:50:43;0.70;;;0.70;;
4831;SDS011;2430;51.322;7.864;2023-02-18T11:55:59;0.80;;;0.70;;
4831;SDS011;2430;51.322;7.864;2023-02-18T11:58:27;0.77;;;0.77;;
4831;SDS011;2430;51.322;7.864;2023-02-18T12:00:58;2.60;;;0.93;;
4831;SDS011;2430;51.322;7.864;2023-02-18T12:03:29;0.80;;;0.80;;
4831;SDS011;2430;51.322;7.864;2023-02-18T12:05:59;3.37;;;1.00;;
4831;SDS011;2430;51.322;7.864;2023-02-18T12:08:27;0.77;;;0.77;;
4831;SDS011;2430;51.322;7.864;2023-02-18T12:10:58;0.70;;;0.70;;
4831;SDS011;2430;51.322;7.864;2023-02-18T12:13:27;0.80;;;0.80;;
4831;SDS011;2430;51.322;7.864;2023-02-18T12:15:59;1.10;;;0.83;;
4831;SDS011;2430;51.322;7.864;2023-02-18T12:18:34;1.30;;;1.20;;
4831;SDS011;2430;51.322;7.864;2023-02-18T12:21:13;0.97;;;0.90;;
4831;SDS011;2430;51.322;7.864;2023-02-18T12:23:46;0.90;;;0.80;;
4831;SDS011;2430;51.322;7.864;2023-02-18T12:26:18;13.30;;;0.90;;
4831;SDS011;2430;51.322;7.864;2023-02-18T12:28:53;1.27;;;0.87;;
4831;SDS011;2430;51.322;7.864;2023-02-18T12:31:25;0.70;;;0.57;;
4831;SDS011;2430;51.322;7.864;2023-02-18T12:34:00;0.70;;;0.60;;
4831;SDS011;2430;51.322;7.864;2023-02-18T12:36:37;0.70;;;0.70;;
4831;SDS011;2430;51.322;7.864;2023-02-18T12:39:10;0.60;;;0.60;;
4831;SDS011;2430;51.322;7.864;2023-02-18T12:41:43;0.70;;;0.70;;
4831;SDS011;2430;51.322;7.864;2023-02-18T12:44:17;1.10;;;0.60;;
4831;SDS011;2430;51.322;7.864;2023-02-18T12:46:55;0.70;;;0.70;;
4831;SDS011;2430;51.322;7.864;2023-02-18T12:49:31;0.67;;;0.60;;
4831;SDS011;2430;51.322;7.864;2023-02-18T12:52:07;0.90;;;0.60;;
4831;SDS011;2430;51.322;7.864;2023-02-18T12:54:41;0.80;;;0.70;;
4831;SDS011;2430;51.322;7.864;2023-02-18T12:57:17;0.73;;;0.67;;
4831;SDS011;2430;51.322;7.864;2023-02-18T12:59:52;2.53;;;0.97;;
4831;SDS011;2430;51.322;7.864;2023-02-18T13:02:31;0.90;;;0.70;;
4831;SDS011;2430;51.322;7.864;2023-02-18T13:05:03;0.90;;;0.70;;
4831;SDS011;2430;51.322;7.864;2023-02-18T13:07:38;2.03;;;0.73;;
4831;SDS011;2430;51.322;7.864;2023-02-18T13:10:20;0.90;;;0.80;;
4831;SDS011;2430;51.322;7.864;2023-02-18T13:12:50;0.77;;;0.70;;
4831;SDS011;2430;51.322;7.864;2023-02-18T13:15:19;0.73;;;0.70;;
4831;SDS011;2430;51.322;7.864;2023-02-18T13:17:47;0.83;;;0.83;;
4831;SDS011;2430;51.322;7.864;2023-02-18T13:20:17;0.63;;;0.60;;
4831;SDS011;2430;51.322;7.864;2023-02-18T13:22:46;0.70;;;0.67;;
4831;SDS011;2430;51.322;7.864;2023-02-18T13:25:14;1.00;;;0.90;;
4831;SDS011;2430;51.322;7.864;2023-02-18T13:27:42;1.10;;;0.90;;
4831;SDS011;2430;51.322;7.864;2023-02-18T13:30:18;0.77;;;0.63;;
4831;SDS011;2430;51.322;7.864;2023-02-18T13:32:50;1.10;;;0.97;;
4831;SDS011;2430;51.322;7.864;2023-02-18T13:35:22;0.90;;;0.80;;
4831;SDS011;2430;51.322;7.864;2023-02-18T13:37:54;0.80;;;0.70;;
4831;SDS011;2430;51.322;7.864;2023-02-18T13:40:24;0.73;;;0.70;;
4831;SDS011;2430;51.322;7.864;2023-02-18T13:42:52;0.70;;;0.60;;
4831;SDS011;2430;51.322;7.864;2023-02-18T13:45:23;1.07;;;0.97;;
4831;SDS011;2430;51.322;7.864;2023-02-18T13:47:50;0.90;;;0.80;;
4831;SDS011;2430;51.322;7.864;2023-02-18T13:50:26;0.67;;;0.57;;
4831;SDS011;2430;51.322;7.864;2023-02-18T13:52:57;0.80;;;0.80;;
4831;SDS011;2430;51.322;7.864;2023-02-18T13:55:25;0.90;;;0.83;;
4831;SDS011;2430;51.322;7.864;2023-02-18T13:57:53;0.70;;;0.70;;
4831;SDS011;2430;51.322;7.864;2023-02-18T14:00:21;0.70;;;0.70;;
4831;SDS011;2430;51.322;7.864;2023-02-18T14:02:57;0.80;;;0.77;;
4831;SDS011;2430;51.322;7.864;2023-02-18T14:05:34;8.33;;;0.80;;
4831;SDS011;2430;51.322;7.864;2023-02-18T14:08:05;0.70;;;0.63;;
4831;SDS011;2430;51.322;7.864;2023-02-18T14:10:32;0.80;;;0.73;;
4831;SDS011;2430;51.322;7.864;2023-02-18T14:13:02;0.70;;;0.70;;
4831;SDS011;2430;51.322;7.864;2023-02-18T14:15:48;0.70;;;0.60;;
4831;SDS011;2430;51.322;7.864;2023-02-18T14:18:31;0.80;;;0.80;;
4831;SDS011;2430;51.322;7.864;2023-02-18T14:21:16;0.70;;;0.70;;
4831;SDS011;2430;51.322;7.864;2023-02-18T14:23:53;1.20;;;1.10;;
4831;SDS011;2430;51.322;7.864;2023-02-18T14:26:22;0.80;;;0.80;;
4831;SDS011;2430;51.322;7.864;2023-02-18T14:28:51;0.80;;;0.80;;
4831;SDS011;2430;51.322;7.864;2023-02-18T14:31:27;0.77;;;0.73;;
4831;SDS011;2430;51.322;7.864;2023-02-18T14:34:01;0.87;;;0.83;;
4831;SDS011;2430;51.322;7.864;2023-02-18T14:36:33;2.13;;;1.00;;
4831;SDS011;2430;51.322;7.864;2023-02-18T14:39:02;0.70;;;0.70;;
4831;SDS011;2430;51.322;7.864;2023-02-18T14:41:38;0.70;;;0.60;;
4831;SDS011;2430;51.322;7.864;2023-02-18T14:44:21;1.00;;;0.90;;
4831;SDS011;2430;51.322;7.864;2023-02-18T14:46:54;1.10;;;0.80;;
4831;SDS011;2430;51.322;7.864;2023-02-18T14:49:35;1.17;;;0.93;;
4831;SDS011;2430;51.322;7.864;2023-02-18T14:52:04;1.00;;;1.00;;
4831;SDS011;2430;51.322;7.864;2023-02-18T14:54:32;0.80;;;0.80;;
4831;SDS011;2430;51.322;7.864;2023-02-18T14:56:59;1.07;;;0.97;;
4831;SDS011;2430;51.322;7.864;2023-02-18T14:59:29;0.80;;;0.80;;
4831;SDS011;2430;51.322;7.864;2023-02-18T15:01:56;1.10;;;1.00;;
4831;SDS011;2430;51.322;7.864;2023-02-18T15:04:23;1.50;;;1.40;;
4831;SDS011;2430;51.322;7.864;2023-02-18T15:06:56;1.30;;;1.20;;
4831;SDS011;2430;51.322;7.864;2023-02-18T15:09:24;1.00;;;0.90;;
4831;SDS011;2430;51.322;7.864;2023-02-18T15:11:55;0.70;;;0.70;;
4831;SDS011;2430;51.322;7.864;2023-02-18T15:14:23;2.00;;;1.03;;
4831;SDS011;2430;51.322;7.864;2023-02-18T15:16:51;1.73;;;1.43;;
4831;SDS011;2430;51.322;7.864;2023-02-18T15:19:18;1.10;;;1.00;;
4831;SDS011;2430;51.322;7.864;2023-02-18T15:21:46;1.40;;;1.10;;
4831;SDS011;2430;51.322;7.864;2023-02-18T15:24:16;3.97;;;1.50;;
4831;SDS011;2430;51.322;7.864;2023-02-18T15:26:47;1.27;;;1.17;;
4831;SDS011;2430;51.322;7.864;2023-02-18T15:29:17;2.47;;;1.97;;
4831;SDS011;2430;51.322;7.864;2023-02-18T15:31:44;1.77;;;1.30;;
4831;SDS011;2430;51.322;7.864;2023-02-18T15:34:28;2.47;;;1.53;;